CYDP/YDP METAR and TAF weather

Enter ICAO airport designator
Station Type Date Time Source
CYDP METAR 2020/02/29 00:00 UTC NOAA

CYDP 290000Z 32007KT 15SM FEW025 M19/M22 A3005 RMK SC1 LAST STAFFED OB/ NEXT 290900 SLP177


Station Type Date Time Source
CYDP Decoded METAR 2020/02/29 00:00 UTC NOAA

Nain, Nfld, Canada (CYDP) 56-33N 061-41W 7M
Feb 28, 2020 - 07:00 PM EST / 2020.02.29 0000 UTC
Wind: from the NW (320 degrees) at 8 MPH (7 KT):0
Visibility: 15 mile(s):0
Sky conditions: mostly clear
Temperature: -2 F (-19 C)
Windchill: -16 F (-27 C):2
Dew Point: -7 F (-22 C)
Relative Humidity: 77%
Pressure (altimeter): 30.05 in. Hg (1017 hPa)
ob: CYDP 290000Z 32007KT 15SM FEW025 M19/M22 A3005 RMK SC1 LAST STAFFED OB/ NEXT 290900 SLP177
cycle: 0

Station Type Date Time Source
CYDP TAF 2020/02/28 20:00 UTC NOAA

TAF CYDP 281940Z 2820/2824 36005KT P6SM FEW030 BKN200
BECMG 2822/2824 31007KT
RMK NXT FCST WILL BE ISSUED AT 291045Z

Example: see airport list